createdAt,value
2023-03-30T00:00:51.742Z,59.62
2023-03-30T00:03:30.661Z,59.89
2023-03-30T00:06:05.325Z,60.06
2023-03-30T00:08:34.108Z,59.88
2023-03-30T00:11:10.185Z,59.67
2023-03-30T00:13:37.616Z,60.15
2023-03-30T00:16:14.158Z,59.98
2023-03-30T00:18:45.523Z,59.81
2023-03-30T00:21:12.318Z,59.84
2023-03-30T00:23:39.784Z,60.28
2023-03-30T00:26:09.861Z,60.34
2023-03-30T00:28:42.633Z,59.98
2023-03-30T00:31:10.859Z,59.81
2023-03-30T00:33:45.500Z,60.47
2023-03-30T00:36:14.026Z,60.85
2023-03-30T00:41:34.942Z,60.13
2023-03-30T00:44:02.818Z,60.86
2023-03-30T00:46:34.138Z,60.73
2023-03-30T00:49:06.119Z,60.99
2023-03-30T00:51:44.167Z,61.43
2023-03-30T00:54:16.582Z,60.29
2023-03-30T00:56:43.404Z,60.49
2023-03-30T00:59:24.691Z,61.10
2023-03-30T01:01:51.575Z,60.78
2023-03-30T01:04:19.061Z,60.82
2023-03-30T01:06:47.334Z,60.74
2023-03-30T01:09:15.536Z,60.94
2023-03-30T01:11:43.622Z,61.44
2023-03-30T01:14:20.589Z,61.03
2023-03-30T01:17:05.897Z,61.07
2023-03-30T01:19:40.103Z,61.24
2023-03-30T01:22:40.435Z,61.22
2023-03-30T01:25:15.409Z,61.19
2023-03-30T01:28:11.318Z,61.30
2023-03-30T01:31:01.213Z,60.82
2023-03-30T01:33:44.269Z,61.22
2023-03-30T01:37:07.208Z,60.65
2023-03-30T01:40:00.288Z,59.75
2023-03-30T01:42:55.732Z,61.00
2023-03-30T01:45:27.717Z,61.05
2023-03-30T01:48:38.178Z,61.51
2023-03-30T01:51:11.403Z,60.74
2023-03-30T01:54:07.617Z,61.16
2023-03-30T01:57:00.881Z,60.91
2023-03-30T01:59:49.006Z,60.60
2023-03-30T02:02:18.641Z,60.90
2023-03-30T02:04:48.214Z,60.67
2023-03-30T02:07:24.989Z,61.02
2023-03-30T02:09:56.867Z,61.34
2023-03-30T02:12:30.461Z,62.13
2023-03-30T02:15:15.774Z,61.66
2023-03-30T02:17:43.696Z,61.59
2023-03-30T02:20:12.371Z,61.97
2023-03-30T02:22:39.645Z,61.68
2023-03-30T02:25:15.484Z,61.32
2023-03-30T02:27:46.794Z,61.48
2023-03-30T02:30:22.356Z,61.20
2023-03-30T02:32:59.957Z,61.57
2023-03-30T02:35:53.569Z,61.54
2023-03-30T02:38:58.746Z,61.22
2023-03-30T02:42:03.497Z,61.13
2023-03-30T02:44:50.089Z,61.63
2023-03-30T02:47:46.127Z,61.75
2023-03-30T02:50:37.310Z,61.20
2023-03-30T02:53:34.963Z,61.02
2023-03-30T02:56:20.313Z,61.59
2023-03-30T02:59:20.762Z,61.98
2023-03-30T03:02:30.592Z,62.11
2023-03-30T03:05:00.771Z,61.87
2023-03-30T03:07:28.157Z,61.96
2023-03-30T03:09:57.563Z,62.32
2023-03-30T03:12:24.205Z,61.26
2023-03-30T03:14:57.868Z,61.83
2023-03-30T03:17:25.065Z,61.93
2023-03-30T03:19:56.141Z,61.27
2023-03-30T03:22:22.877Z,61.71
2023-03-30T03:24:49.613Z,61.40
2023-03-30T03:27:19.482Z,61.32
2023-03-30T03:29:48.738Z,61.52
2023-03-30T03:32:16.663Z,61.32
2023-03-30T03:34:46.340Z,61.90
2023-03-30T03:37:13.315Z,62.13
2023-03-30T03:39:40.100Z,62.28
2023-03-30T03:42:09.935Z,62.02
2023-03-30T03:44:37.845Z,62.59
2023-03-30T03:47:08.780Z,62.09
2023-03-30T03:49:38.513Z,62.33
2023-03-30T03:52:05.297Z,62.16
2023-03-30T03:54:32.169Z,62.28
2023-03-30T03:57:07.277Z,62.15
2023-03-30T03:59:34.914Z,61.97
2023-03-30T04:02:05.808Z,61.82
2023-03-30T04:04:36.165Z,62.22
2023-03-30T04:09:52.540Z,62.14
2023-03-30T04:12:20.334Z,61.92
2023-03-30T04:14:51.129Z,62.33
2023-03-30T04:17:17.902Z,62.42
2023-03-30T04:19:45.876Z,62.32
2023-03-30T04:22:15.434Z,62.35
2023-03-30T04:24:44.824Z,62.09
2023-03-30T04:27:19.581Z,62.26
2023-03-30T04:29:46.921Z,62.64
2023-03-30T04:32:23.311Z,62.38
2023-03-30T04:34:57.604Z,62.06
2023-03-30T04:37:36.857Z,61.82
2023-03-30T04:40:13.300Z,62.03
2023-03-30T04:42:44.883Z,61.92
2023-03-30T04:45:11.713Z,62.28
2023-03-30T04:47:38.667Z,62.15
2023-03-30T04:50:16.788Z,62.84
2023-03-30T04:52:57.859Z,62.09
2023-03-30T04:55:35.869Z,61.73
2023-03-30T04:58:08.591Z,62.23
2023-03-30T05:00:35.383Z,62.36
2023-03-30T05:03:08.424Z,61.96
2023-03-30T05:05:35.611Z,61.93
2023-03-30T05:08:02.282Z,62.49
2023-03-30T05:10:31.146Z,62.61
2023-03-30T05:12:57.950Z,62.15
2023-03-30T05:15:24.717Z,62.64
2023-03-30T05:17:51.509Z,62.95
2023-03-30T05:20:21.589Z,63.48
2023-03-30T05:22:49.800Z,63.73
2023-03-30T05:25:20.276Z,63.49
2023-03-30T05:27:48.207Z,63.70
2023-03-30T05:30:15.723Z,63.28
2023-03-30T05:32:43.100Z,62.48
2023-03-30T05:35:12.883Z,62.65
2023-03-30T05:37:44.592Z,62.95
2023-03-30T05:40:11.906Z,63.16
2023-03-30T05:42:38.707Z,63.25
2023-03-30T05:45:06.217Z,62.75
2023-03-30T05:47:33.072Z,63.41
2023-03-30T05:49:59.953Z,62.76
2023-03-30T05:52:26.624Z,63.15
2023-03-30T05:54:57.941Z,62.43
2023-03-30T05:57:24.720Z,63.08
2023-03-30T05:59:55.116Z,63.08
2023-03-30T06:02:24.764Z,62.81
2023-03-30T06:05:02.260Z,62.86
2023-03-30T06:07:35.627Z,62.71
2023-03-30T06:10:02.458Z,63.16
2023-03-30T06:12:32.163Z,63.06
2023-03-30T06:15:03.327Z,62.69
2023-03-30T06:17:40.114Z,62.94
2023-03-30T06:20:14.520Z,62.84
2023-03-30T06:22:51.615Z,62.33
2023-03-30T06:25:28.757Z,62.57
2023-03-30T06:27:56.333Z,62.40
2023-03-30T06:30:25.615Z,62.60
2023-03-30T06:32:52.399Z,63.00
2023-03-30T06:35:20.620Z,62.79
2023-03-30T06:37:47.603Z,63.28
2023-03-30T06:40:14.555Z,63.17
2023-03-30T06:42:44.287Z,63.47
2023-03-30T06:45:12.250Z,63.79
2023-03-30T06:50:24.715Z,63.64
2023-03-30T06:52:59.517Z,64.31
2023-03-30T06:55:26.573Z,64.22
2023-03-30T06:57:59.449Z,64.39
2023-03-30T07:00:29.813Z,64.65
2023-03-30T07:03:02.408Z,64.60
2023-03-30T07:05:36.650Z,64.83
2023-03-30T07:08:13.604Z,65.15
2023-03-30T07:10:40.659Z,64.74
2023-03-30T07:13:11.178Z,64.91
2023-03-30T07:15:37.892Z,64.85
2023-03-30T07:18:12.247Z,65.13
2023-03-30T07:20:39.570Z,64.65
2023-03-30T07:23:07.304Z,64.41
2023-03-30T07:25:34.616Z,64.61
2023-03-30T07:28:07.198Z,65.44
2023-03-30T07:30:36.984Z,65.47
2023-03-30T07:33:06.731Z,65.79
2023-03-30T07:35:37.173Z,65.76
2023-03-30T07:38:10.208Z,65.80
2023-03-30T07:40:46.136Z,65.54
2023-03-30T07:43:13.326Z,65.10
2023-03-30T07:45:40.294Z,64.65
2023-03-30T07:48:09.614Z,64.45
2023-03-30T07:50:43.244Z,64.18
2023-03-30T07:53:16.834Z,63.88
2023-03-30T07:55:47.736Z,63.99
2023-03-30T07:58:14.518Z,63.93
2023-03-30T08:00:49.353Z,64.01
2023-03-30T08:03:17.090Z,62.64
2023-03-30T08:05:44.184Z,62.07
2023-03-30T08:08:11.091Z,62.57
2023-03-30T08:10:38.268Z,62.52
2023-03-30T08:13:10.736Z,61.85
2023-03-30T08:15:49.248Z,61.61
2023-03-30T08:18:17.344Z,61.27
2023-03-30T08:20:51.848Z,60.55
2023-03-30T08:23:26.973Z,59.84
2023-03-30T08:25:58.250Z,59.63
2023-03-30T08:28:28.586Z,58.71
2023-03-30T08:31:12.678Z,58.40
2023-03-30T08:33:40.210Z,58.17
2023-03-30T08:36:17.213Z,58.35
2023-03-30T08:38:45.826Z,58.05
2023-03-30T08:41:25.158Z,57.99
2023-03-30T08:44:00.734Z,57.48
2023-03-30T08:46:30.635Z,57.40
2023-03-30T08:49:11.680Z,57.06
2023-03-30T08:54:38.852Z,56.62
2023-03-30T08:57:30.975Z,57.11
2023-03-30T09:00:20.239Z,57.00
2023-03-30T09:02:55.612Z,56.39
2023-03-30T09:05:37.885Z,56.56
2023-03-30T09:08:13.723Z,56.61
2023-03-30T09:10:58.282Z,56.29
2023-03-30T09:13:38.777Z,55.51
2023-03-30T09:16:21.825Z,56.10
2023-03-30T09:18:58.140Z,55.71
2023-03-30T09:21:30.346Z,55.72
2023-03-30T09:24:03.049Z,56.04
2023-03-30T09:26:55.009Z,55.72
2023-03-30T09:29:31.993Z,55.53
2023-03-30T09:32:16.696Z,55.29
2023-03-30T09:35:09.709Z,55.54
2023-03-30T09:37:39.600Z,54.83
2023-03-30T09:40:57.150Z,54.93
2023-03-30T09:43:46.330Z,54.28
2023-03-30T09:46:19.897Z,54.44
2023-03-30T09:48:49.027Z,54.50
2023-03-30T09:51:24.675Z,53.94
2023-03-30T09:54:03.930Z,53.00
2023-03-30T09:56:47.934Z,53.18
2023-03-30T09:59:28.131Z,52.67
2023-03-30T10:02:18.077Z,52.37
2023-03-30T10:05:01.505Z,52.68
2023-03-30T10:10:44.243Z,52.26
2023-03-30T10:13:11.316Z,53.08
2023-03-30T10:15:49.297Z,53.15
2023-03-30T10:18:26.962Z,53.32
2023-03-30T10:21:02.884Z,53.22
2023-03-30T10:23:40.327Z,53.15
2023-03-30T10:26:34.796Z,53.11
2023-03-30T10:29:10.447Z,53.20
2023-03-30T10:31:43.171Z,53.47
2023-03-30T10:34:38.049Z,52.88
2023-03-30T10:37:23.250Z,52.32
2023-03-30T10:40:00.034Z,52.60
2023-03-30T10:42:30.717Z,52.41
2023-03-30T10:45:09.022Z,52.61
2023-03-30T10:47:55.078Z,52.31
2023-03-30T10:51:02.503Z,51.28
2023-03-30T10:53:58.533Z,50.61
2023-03-30T10:56:29.994Z,50.29
2023-03-30T10:59:38.507Z,50.28
2023-03-30T11:02:46.289Z,50.04
2023-03-30T11:05:21.913Z,49.35
2023-03-30T11:08:11.011Z,49.25
2023-03-30T11:10:44.332Z,48.76
2023-03-30T11:13:40.303Z,48.27
2023-03-30T11:16:46.912Z,48.75
2023-03-30T11:19:23.920Z,48.25
2023-03-30T11:22:17.413Z,47.63
2023-03-30T11:24:53.249Z,48.07
2023-03-30T11:28:08.769Z,48.25
2023-03-30T11:30:37.378Z,48.88
2023-03-30T11:33:29.432Z,48.37
2023-03-30T11:36:07.489Z,48.40
2023-03-30T11:38:51.048Z,47.84
2023-03-30T11:41:32.020Z,48.11
2023-03-30T11:44:13.092Z,47.57
2023-03-30T11:47:01.202Z,47.12
2023-03-30T11:53:06.314Z,45.52
2023-03-30T11:55:55.877Z,45.50
2023-03-30T11:59:12.115Z,44.11
2023-03-30T12:02:10.071Z,43.77
2023-03-30T12:05:28.411Z,43.38
2023-03-30T12:08:27.686Z,44.18
2023-03-30T12:11:32.450Z,43.13
2023-03-30T12:14:18.084Z,43.04
2023-03-30T12:17:10.436Z,42.95
2023-03-30T12:20:13.325Z,42.11
2023-03-30T12:23:12.435Z,41.84
2023-03-30T12:26:23.463Z,42.64
2023-03-30T12:31:53.357Z,41.79
2023-03-30T12:34:21.607Z,42.22
2023-03-30T12:37:14.098Z,41.76
2023-03-30T12:39:50.119Z,41.67
2023-03-30T12:42:36.862Z,41.69
2023-03-30T12:45:16.583Z,41.81
2023-03-30T12:48:41.672Z,42.58
2023-03-30T12:51:36.902Z,42.77
2023-03-30T12:54:25.605Z,42.98
2023-03-30T12:57:16.921Z,43.40
2023-03-30T13:00:15.744Z,43.86
2023-03-30T13:03:01.857Z,43.75
2023-03-30T13:05:37.430Z,44.18
2023-03-30T13:08:21.904Z,43.97
2023-03-30T13:11:17.022Z,44.33
2023-03-30T13:13:57.030Z,44.58
2023-03-30T13:16:57.274Z,44.06
2023-03-30T13:20:02.056Z,44.36
2023-03-30T13:22:38.037Z,43.91
2023-03-30T13:25:28.087Z,44.37
2023-03-30T13:28:26.495Z,44.05
2023-03-30T13:34:43.385Z,44.25
2023-03-30T13:37:35.693Z,43.81
2023-03-30T13:40:39.639Z,44.72
2023-03-30T13:43:43.094Z,44.23
2023-03-30T13:46:44.221Z,44.92
2023-03-30T13:49:59.085Z,44.94
2023-03-30T13:52:40.134Z,44.81
2023-03-30T13:55:20.469Z,44.79
2023-03-30T13:57:48.671Z,44.89
2023-03-30T14:00:25.549Z,44.67
2023-03-30T14:02:52.293Z,44.78
2023-03-30T14:05:34.874Z,44.54
2023-03-30T14:08:14.857Z,44.49
2023-03-30T14:10:58.690Z,44.88
2023-03-30T14:13:34.320Z,44.68
2023-03-30T14:16:05.817Z,45.02
2023-03-30T14:18:36.244Z,45.71
2023-03-30T14:21:06.668Z,45.42
2023-03-30T14:23:42.928Z,45.10
2023-03-30T14:26:19.212Z,44.81
2023-03-30T14:28:47.198Z,45.25
2023-03-30T14:31:20.233Z,45.46
2023-03-30T14:33:54.062Z,45.58
2023-03-30T14:36:30.353Z,45.48
2023-03-30T14:39:03.727Z,45.77
2023-03-30T14:41:50.044Z,46.25
2023-03-30T14:44:33.790Z,46.04
2023-03-30T14:47:01.016Z,45.30
2023-03-30T14:49:31.988Z,45.19
2023-03-30T14:52:09.509Z,45.46
2023-03-30T14:54:44.716Z,45.72
2023-03-30T15:01:05.001Z,45.58
2023-03-30T15:03:36.516Z,45.86
2023-03-30T15:06:18.318Z,46.03
2023-03-30T15:08:51.505Z,46.19
2023-03-30T15:11:30.927Z,46.19
2023-03-30T15:14:06.069Z,45.32
2023-03-30T15:16:58.740Z,45.80
2023-03-30T15:19:38.136Z,45.77
2023-03-30T15:22:38.480Z,46.38
2023-03-30T15:25:28.641Z,46.88
2023-03-30T15:28:02.174Z,46.80
2023-03-30T15:30:42.978Z,46.44
2023-03-30T15:33:40.091Z,46.53
2023-03-30T15:36:17.102Z,46.32
2023-03-30T15:39:09.214Z,46.58
2023-03-30T15:41:58.237Z,47.54
2023-03-30T15:44:25.187Z,47.16
2023-03-30T15:46:56.714Z,46.97
2023-03-30T15:49:29.770Z,46.70
2023-03-30T15:52:02.316Z,46.63
2023-03-30T15:57:44.760Z,47.12
2023-03-30T16:00:33.398Z,47.67
2023-03-30T16:03:02.121Z,47.53
2023-03-30T16:05:34.020Z,47.15
2023-03-30T16:08:03.791Z,47.42
2023-03-30T16:10:33.049Z,47.39
2023-03-30T16:13:13.259Z,47.66
2023-03-30T16:15:50.767Z,47.94
2023-03-30T16:18:19.814Z,48.03
2023-03-30T16:20:51.532Z,48.20
2023-03-30T16:23:19.340Z,48.24
2023-03-30T16:25:47.224Z,48.12
2023-03-30T16:28:17.953Z,47.96
2023-03-30T16:30:47.304Z,47.99
2023-03-30T16:33:14.189Z,48.31
2023-03-30T16:35:41.245Z,47.92
2023-03-30T16:38:17.898Z,48.17
2023-03-30T16:40:52.425Z,47.90
2023-03-30T16:43:21.728Z,48.02
2023-03-30T16:45:48.825Z,47.96
2023-03-30T16:48:16.718Z,48.08
2023-03-30T16:50:59.355Z,48.34
2023-03-30T16:53:41.913Z,48.20
2023-03-30T16:56:20.588Z,48.48
2023-03-30T16:58:49.662Z,48.24
2023-03-30T17:01:25.680Z,48.28
2023-03-30T17:04:20.008Z,48.31
2023-03-30T17:07:03.885Z,48.69
2023-03-30T17:09:30.510Z,48.83
2023-03-30T17:12:00.782Z,48.87
2023-03-30T17:14:35.700Z,48.78
2023-03-30T17:17:03.793Z,48.82
2023-03-30T17:19:34.056Z,48.69
2023-03-30T17:22:05.717Z,49.03
2023-03-30T17:24:32.361Z,49.24
2023-03-30T17:27:03.526Z,49.34
2023-03-30T17:29:33.520Z,49.37
2023-03-30T17:32:03.140Z,49.09
2023-03-30T17:34:29.852Z,49.16
2023-03-30T17:37:05.056Z,49.14
2023-03-30T17:39:46.028Z,49.28
2023-03-30T17:42:14.310Z,49.27
2023-03-30T17:44:45.279Z,49.48
2023-03-30T17:47:18.156Z,49.82
2023-03-30T17:49:44.984Z,49.35
2023-03-30T17:52:17.321Z,50.18
2023-03-30T17:54:50.502Z,50.05
2023-03-30T17:57:20.076Z,49.85
2023-03-30T17:59:47.943Z,50.20
2023-03-30T18:02:22.782Z,50.04
2023-03-30T18:05:02.032Z,50.46
2023-03-30T18:07:33.569Z,50.80
2023-03-30T18:10:03.029Z,50.19
2023-03-30T18:12:30.449Z,50.50
2023-03-30T18:15:00.674Z,50.43
2023-03-30T18:17:43.069Z,50.71
2023-03-30T18:20:21.209Z,51.20
2023-03-30T18:22:48.856Z,51.19
2023-03-30T18:25:32.142Z,50.97
2023-03-30T18:28:11.570Z,50.68
2023-03-30T18:30:45.936Z,49.09
2023-03-30T18:33:13.590Z,47.44
2023-03-30T18:35:42.706Z,46.99
2023-03-30T18:38:17.163Z,46.70
2023-03-30T18:40:46.188Z,46.06
2023-03-30T18:43:13.471Z,45.81
2023-03-30T18:45:42.579Z,45.76
2023-03-30T18:48:13.743Z,45.56
2023-03-30T18:51:01.280Z,45.00
2023-03-30T18:53:29.225Z,45.10
2023-03-30T18:56:03.840Z,44.53
2023-03-30T18:58:42.856Z,44.83
2023-03-30T19:01:17.191Z,44.22
2023-03-30T19:03:59.497Z,45.00
2023-03-30T19:06:28.789Z,44.98
2023-03-30T19:08:58.591Z,45.48
2023-03-30T19:11:32.332Z,45.86
2023-03-30T19:14:02.996Z,46.05
2023-03-30T19:16:29.813Z,46.24
2023-03-30T19:19:02.365Z,46.48
2023-03-30T19:21:29.198Z,46.40
2023-03-30T19:23:56.916Z,47.02
2023-03-30T19:26:23.579Z,47.60
2023-03-30T19:28:55.091Z,47.75
2023-03-30T19:31:22.470Z,47.73
2023-03-30T19:33:49.184Z,48.09
2023-03-30T19:36:16.469Z,48.06
2023-03-30T19:38:46.600Z,48.57
2023-03-30T19:41:19.267Z,48.62
2023-03-30T19:43:50.259Z,48.77
2023-03-30T19:46:34.311Z,48.83
2023-03-30T19:49:04.910Z,49.09
2023-03-30T19:51:32.371Z,48.96
2023-03-30T19:54:09.843Z,48.50
2023-03-30T19:56:39.631Z,48.05
2023-03-30T19:59:15.483Z,47.76
2023-03-30T20:01:44.048Z,48.12
2023-03-30T20:04:11.337Z,47.62
2023-03-30T20:06:40.867Z,47.17
2023-03-30T20:09:18.314Z,47.15
2023-03-30T20:11:49.822Z,47.04
2023-03-30T20:14:22.967Z,46.82
2023-03-30T20:17:05.002Z,47.14
2023-03-30T20:19:37.456Z,46.78
2023-03-30T20:22:11.472Z,46.66
2023-03-30T20:24:48.034Z,46.51
2023-03-30T20:27:18.348Z,45.57
2023-03-30T20:29:54.640Z,45.46
2023-03-30T20:32:25.126Z,46.67
2023-03-30T20:34:56.438Z,48.67
2023-03-30T20:37:23.633Z,50.22
2023-03-30T20:39:55.269Z,51.13
2023-03-30T20:42:26.636Z,50.61
2023-03-30T20:44:59.945Z,49.89
2023-03-30T20:47:39.261Z,50.63
2023-03-30T20:50:19.264Z,51.55
2023-03-30T20:52:56.565Z,52.98
2023-03-30T20:55:27.652Z,52.45
2023-03-30T20:58:00.748Z,52.63
2023-03-30T21:00:30.731Z,52.41
2023-03-30T21:03:14.486Z,53.06
2023-03-30T21:05:47.970Z,53.91
2023-03-30T21:08:21.674Z,54.57
2023-03-30T21:10:50.129Z,55.34
2023-03-30T21:13:19.834Z,55.64
2023-03-30T21:15:46.783Z,55.68
2023-03-30T21:18:15.822Z,56.50
2023-03-30T21:23:25.446Z,56.79
2023-03-30T21:25:58.068Z,56.68
2023-03-30T21:28:39.664Z,56.71
2023-03-30T21:31:21.155Z,56.45
2023-03-30T21:34:02.848Z,55.84
2023-03-30T21:36:29.546Z,54.83
2023-03-30T21:39:00.512Z,53.66
2023-03-30T21:41:35.734Z,53.97
2023-03-30T21:44:10.450Z,54.04
2023-03-30T21:46:41.397Z,54.13
2023-03-30T21:49:09.985Z,53.48
2023-03-30T21:51:47.198Z,53.22
2023-03-30T21:54:19.508Z,52.93
2023-03-30T21:56:46.404Z,52.17
2023-03-30T21:59:13.624Z,52.79
2023-03-30T22:01:54.580Z,51.31
2023-03-30T22:04:24.373Z,50.12
2023-03-30T22:06:53.316Z,49.00
2023-03-30T22:09:20.355Z,48.17
2023-03-30T22:11:49.804Z,47.42
2023-03-30T22:14:21.520Z,47.05
2023-03-30T22:19:44.897Z,47.22
2023-03-30T22:22:20.288Z,47.21
2023-03-30T22:24:49.819Z,47.26
2023-03-30T22:27:19.088Z,46.79
2023-03-30T22:29:49.166Z,47.08
2023-03-30T22:32:30.074Z,47.00
2023-03-30T22:34:57.237Z,46.97
2023-03-30T22:37:32.843Z,46.40
2023-03-30T22:40:03.053Z,47.24
2023-03-30T22:42:35.825Z,46.93
2023-03-30T22:45:07.588Z,46.90
2023-03-30T22:47:34.470Z,47.91
2023-03-30T22:50:04.679Z,47.62
2023-03-30T22:52:31.506Z,48.16
2023-03-30T22:57:46.085Z,48.25
2023-03-30T23:00:17.268Z,47.95
2023-03-30T23:02:50.012Z,47.79
2023-03-30T23:05:17.218Z,47.90
2023-03-30T23:07:46.543Z,47.68
2023-03-30T23:10:17.020Z,47.85
2023-03-30T23:12:48.884Z,48.62
2023-03-30T23:15:18.689Z,49.08
2023-03-30T23:17:47.644Z,48.18
2023-03-30T23:20:15.904Z,48.03
2023-03-30T23:22:43.088Z,48.08
2023-03-30T23:25:10.813Z,48.00
2023-03-30T23:27:37.903Z,48.57
2023-03-30T23:30:06.161Z,48.18
2023-03-30T23:32:36.352Z,48.55
2023-03-30T23:35:07.956Z,48.20
2023-03-30T23:37:37.052Z,48.84
2023-03-30T23:40:12.016Z,48.61
2023-03-30T23:45:31.798Z,48.90
2023-03-30T23:48:04.594Z,49.00
2023-03-30T23:50:37.374Z,49.11
2023-03-30T23:53:09.898Z,49.28
2023-03-30T23:55:46.924Z,49.33
2023-03-30T23:58:14.952Z,49.14
